sensor_id;sensor_type;location;lat;lon;timestamp;P1;durP1;ratioP1;P2;durP2;ratioP2
3873;SDS011;1952;50.872;6.692;2023-06-22T00:33:20;4.87;;;4.47;;
3873;SDS011;1952;50.872;6.692;2023-06-22T00:35:48;5.20;;;4.70;;
3873;SDS011;1952;50.872;6.692;2023-06-22T00:38:18;5.90;;;5.30;;
3873;SDS011;1952;50.872;6.692;2023-06-22T00:40:47;6.07;;;5.57;;
3873;SDS011;1952;50.872;6.692;2023-06-22T00:43:15;5.83;;;5.23;;
3873;SDS011;1952;50.872;6.692;2023-06-22T00:45:43;5.73;;;4.90;;
3873;SDS011;1952;50.872;6.692;2023-06-22T00:48:11;5.50;;;5.00;;
3873;SDS011;1952;50.872;6.692;2023-06-22T00:50:41;5.23;;;4.73;;
3873;SDS011;1952;50.872;6.692;2023-06-22T00:53:10;5.93;;;5.47;;
3873;SDS011;1952;50.872;6.692;2023-06-22T00:55:41;6.27;;;5.10;;
3873;SDS011;1952;50.872;6.692;2023-06-22T00:58:10;6.13;;;5.53;;
3873;SDS011;1952;50.872;6.692;2023-06-22T01:00:39;5.50;;;5.07;;
3873;SDS011;1952;50.872;6.692;2023-06-22T01:03:08;5.83;;;5.33;;
3873;SDS011;1952;50.872;6.692;2023-06-22T01:05:37;5.40;;;4.90;;
3873;SDS011;1952;50.872;6.692;2023-06-22T01:08:12;5.63;;;5.13;;
3873;SDS011;1952;50.872;6.692;2023-06-22T01:10:58;5.83;;;4.60;;
3873;SDS011;1952;50.872;6.692;2023-06-22T01:13:32;6.27;;;4.90;;
3873;SDS011;1952;50.872;6.692;2023-06-22T01:16:05;5.77;;;5.17;;
3873;SDS011;1952;50.872;6.692;2023-06-22T01:18:40;5.97;;;5.47;;
3873;SDS011;1952;50.872;6.692;2023-06-22T01:21:11;4.93;;;4.43;;
3873;SDS011;1952;50.872;6.692;2023-06-22T01:23:51;4.80;;;4.40;;
3873;SDS011;1952;50.872;6.692;2023-06-22T01:26:25;5.87;;;4.70;;
3873;SDS011;1952;50.872;6.692;2023-06-22T01:28:57;5.77;;;5.23;;
3873;SDS011;1952;50.872;6.692;2023-06-22T01:31:27;7.20;;;5.60;;
3873;SDS011;1952;50.872;6.692;2023-06-22T01:33:57;6.10;;;5.30;;
3873;SDS011;1952;50.872;6.692;2023-06-22T01:36:26;6.90;;;4.70;;
3873;SDS011;1952;50.872;6.692;2023-06-22T01:38:55;5.50;;;4.87;;
3873;SDS011;1952;50.872;6.692;2023-06-22T01:41:26;4.90;;;4.50;;
3873;SDS011;1952;50.872;6.692;2023-06-22T01:43:55;6.23;;;4.90;;
3873;SDS011;1952;50.872;6.692;2023-06-22T01:46:25;5.00;;;4.60;;
3873;SDS011;1952;50.872;6.692;2023-06-22T01:48:53;4.80;;;4.40;;
3873;SDS011;1952;50.872;6.692;2023-06-22T01:51:22;5.97;;;5.10;;
3873;SDS011;1952;50.872;6.692;2023-06-22T01:53:50;5.57;;;5.17;;
3873;SDS011;1952;50.872;6.692;2023-06-22T01:56:18;5.20;;;4.70;;
3873;SDS011;1952;50.872;6.692;2023-06-22T01:58:50;5.60;;;5.10;;
3873;SDS011;1952;50.872;6.692;2023-06-22T02:01:20;5.23;;;4.73;;
3873;SDS011;1952;50.872;6.692;2023-06-22T02:03:57;5.37;;;4.83;;
3873;SDS011;1952;50.872;6.692;2023-06-22T02:06:29;5.23;;;4.73;;
3873;SDS011;1952;50.872;6.692;2023-06-22T02:09:02;6.40;;;5.37;;
3873;SDS011;1952;50.872;6.692;2023-06-22T02:11:33;7.53;;;5.10;;
3873;SDS011;1952;50.872;6.692;2023-06-22T02:14:02;5.67;;;5.17;;
3873;SDS011;1952;50.872;6.692;2023-06-22T02:16:32;4.93;;;4.43;;
3873;SDS011;1952;50.872;6.692;2023-06-22T02:19:01;6.33;;;5.13;;
3873;SDS011;1952;50.872;6.692;2023-06-22T02:21:31;6.07;;;5.37;;
3873;SDS011;1952;50.872;6.692;2023-06-22T02:23:59;6.67;;;5.23;;
3873;SDS011;1952;50.872;6.692;2023-06-22T02:26:27;5.00;;;4.60;;
3873;SDS011;1952;50.872;6.692;2023-06-22T02:28:55;6.30;;;5.70;;
3873;SDS011;1952;50.872;6.692;2023-06-22T02:31:23;4.83;;;4.40;;
3873;SDS011;1952;50.872;6.692;2023-06-22T02:33:58;5.43;;;4.60;;
3873;SDS011;1952;50.872;6.692;2023-06-22T02:36:26;5.20;;;4.70;;
3873;SDS011;1952;50.872;6.692;2023-06-22T02:38:56;5.53;;;5.00;;
3873;SDS011;1952;50.872;6.692;2023-06-22T02:41:25;4.73;;;4.33;;
3873;SDS011;1952;50.872;6.692;2023-06-22T02:43:53;6.20;;;5.70;;
3873;SDS011;1952;50.872;6.692;2023-06-22T02:46:21;5.07;;;4.67;;
3873;SDS011;1952;50.872;6.692;2023-06-22T02:48:49;5.70;;;5.13;;
3873;SDS011;1952;50.872;6.692;2023-06-22T02:51:19;6.20;;;5.10;;
3873;SDS011;1952;50.872;6.692;2023-06-22T02:53:47;5.03;;;4.63;;
3873;SDS011;1952;50.872;6.692;2023-06-22T02:56:23;5.90;;;5.07;;
3873;SDS011;1952;50.872;6.692;2023-06-22T02:58:52;8.20;;;5.77;;
3873;SDS011;1952;50.872;6.692;2023-06-22T03:01:20;4.80;;;4.40;;
3873;SDS011;1952;50.872;6.692;2023-06-22T03:03:50;6.03;;;5.47;;
3873;SDS011;1952;50.872;6.692;2023-06-22T03:06:20;5.60;;;5.10;;
3873;SDS011;1952;50.872;6.692;2023-06-22T03:08:50;5.43;;;4.93;;
3873;SDS011;1952;50.872;6.692;2023-06-22T03:11:18;4.90;;;4.40;;
3873;SDS011;1952;50.872;6.692;2023-06-22T03:13:46;5.43;;;4.90;;
3873;SDS011;1952;50.872;6.692;2023-06-22T03:16:14;7.60;;;4.77;;
3873;SDS011;1952;50.872;6.692;2023-06-22T03:18:42;5.53;;;5.03;;
3873;SDS011;1952;50.872;6.692;2023-06-22T03:21:10;6.03;;;5.03;;
3873;SDS011;1952;50.872;6.692;2023-06-22T03:23:40;5.50;;;5.00;;
3873;SDS011;1952;50.872;6.692;2023-06-22T03:26:08;6.90;;;5.20;;
3873;SDS011;1952;50.872;6.692;2023-06-22T03:28:37;5.20;;;4.67;;
3873;SDS011;1952;50.872;6.692;2023-06-22T03:31:05;6.23;;;5.17;;
3873;SDS011;1952;50.872;6.692;2023-06-22T03:33:34;5.40;;;4.90;;
3873;SDS011;1952;50.872;6.692;2023-06-22T03:36:02;6.77;;;5.80;;
3873;SDS011;1952;50.872;6.692;2023-06-22T03:38:30;5.30;;;4.80;;
3873;SDS011;1952;50.872;6.692;2023-06-22T03:41:00;5.50;;;4.80;;
3873;SDS011;1952;50.872;6.692;2023-06-22T03:43:28;5.60;;;5.10;;
3873;SDS011;1952;50.872;6.692;2023-06-22T03:45:56;5.47;;;4.67;;
3873;SDS011;1952;50.872;6.692;2023-06-22T03:48:24;6.03;;;5.43;;
3873;SDS011;1952;50.872;6.692;2023-06-22T03:50:52;6.27;;;5.67;;
3873;SDS011;1952;50.872;6.692;2023-06-22T03:53:21;5.60;;;5.10;;
3873;SDS011;1952;50.872;6.692;2023-06-22T03:55:49;6.27;;;5.23;;
3873;SDS011;1952;50.872;6.692;2023-06-22T03:58:19;5.03;;;4.60;;
3873;SDS011;1952;50.872;6.692;2023-06-22T04:00:48;5.17;;;4.77;;
3873;SDS011;1952;50.872;6.692;2023-06-22T04:03:17;7.20;;;5.53;;
3873;SDS011;1952;50.872;6.692;2023-06-22T04:05:46;7.00;;;5.60;;
3873;SDS011;1952;50.872;6.692;2023-06-22T04:08:14;6.50;;;5.50;;
3873;SDS011;1952;50.872;6.692;2023-06-22T04:10:43;5.93;;;5.23;;
3873;SDS011;1952;50.872;6.692;2023-06-22T04:13:11;5.90;;;5.30;;
3873;SDS011;1952;50.872;6.692;2023-06-22T04:15:40;9.50;;;5.70;;
3873;SDS011;1952;50.872;6.692;2023-06-22T04:18:08;7.13;;;5.73;;
3873;SDS011;1952;50.872;6.692;2023-06-22T04:20:36;7.07;;;6.37;;
3873;SDS011;1952;50.872;6.692;2023-06-22T04:23:05;6.27;;;5.60;;
3873;SDS011;1952;50.872;6.692;2023-06-22T04:25:33;6.40;;;5.57;;
3873;SDS011;1952;50.872;6.692;2023-06-22T04:28:01;5.90;;;5.30;;
3873;SDS011;1952;50.872;6.692;2023-06-22T04:30:32;6.50;;;5.80;;
3873;SDS011;1952;50.872;6.692;2023-06-22T04:33:02;7.43;;;6.27;;
3873;SDS011;1952;50.872;6.692;2023-06-22T04:35:30;6.47;;;5.97;;
3873;SDS011;1952;50.872;6.692;2023-06-22T04:37:58;6.70;;;6.00;;
3873;SDS011;1952;50.872;6.692;2023-06-22T04:40:26;7.03;;;6.37;;
3873;SDS011;1952;50.872;6.692;2023-06-22T04:42:55;6.13;;;5.63;;
3873;SDS011;1952;50.872;6.692;2023-06-22T04:45:23;8.50;;;5.73;;
3873;SDS011;1952;50.872;6.692;2023-06-22T04:47:51;6.20;;;5.60;;
3873;SDS011;1952;50.872;6.692;2023-06-22T04:50:21;6.70;;;6.03;;
3873;SDS011;1952;50.872;6.692;2023-06-22T04:52:50;6.97;;;6.37;;
3873;SDS011;1952;50.872;6.692;2023-06-22T04:55:19;6.90;;;6.30;;
3873;SDS011;1952;50.872;6.692;2023-06-22T04:57:47;9.43;;;5.60;;
3873;SDS011;1952;50.872;6.692;2023-06-22T05:00:16;7.80;;;5.67;;
3873;SDS011;1952;50.872;6.692;2023-06-22T05:02:49;7.53;;;6.77;;
3873;SDS011;1952;50.872;6.692;2023-06-22T05:05:25;5.90;;;5.40;;
3873;SDS011;1952;50.872;6.692;2023-06-22T05:07:56;6.10;;;5.40;;
3873;SDS011;1952;50.872;6.692;2023-06-22T05:10:26;9.70;;;6.20;;
3873;SDS011;1952;50.872;6.692;2023-06-22T05:12:55;6.73;;;6.03;;
3873;SDS011;1952;50.872;6.692;2023-06-22T05:15:23;6.13;;;5.57;;
3873;SDS011;1952;50.872;6.692;2023-06-22T05:17:56;6.70;;;6.20;;
3873;SDS011;1952;50.872;6.692;2023-06-22T05:20:26;7.43;;;6.80;;
3873;SDS011;1952;50.872;6.692;2023-06-22T05:22:55;7.53;;;6.77;;
3873;SDS011;1952;50.872;6.692;2023-06-22T05:25:23;7.30;;;6.70;;
3873;SDS011;1952;50.872;6.692;2023-06-22T05:27:51;8.90;;;6.80;;
3873;SDS011;1952;50.872;6.692;2023-06-22T05:30:20;7.00;;;6.40;;
3873;SDS011;1952;50.872;6.692;2023-06-22T05:32:49;6.53;;;5.70;;
3873;SDS011;1952;50.872;6.692;2023-06-22T05:35:19;5.83;;;5.33;;
3873;SDS011;1952;50.872;6.692;2023-06-22T05:37:49;6.53;;;5.97;;
3873;SDS011;1952;50.872;6.692;2023-06-22T05:40:18;7.70;;;7.00;;
3873;SDS011;1952;50.872;6.692;2023-06-22T05:42:46;6.83;;;5.50;;
3873;SDS011;1952;50.872;6.692;2023-06-22T05:45:15;6.47;;;5.90;;
3873;SDS011;1952;50.872;6.692;2023-06-22T05:47:43;6.67;;;6.00;;
3873;SDS011;1952;50.872;6.692;2023-06-22T05:50:12;7.87;;;6.00;;
3873;SDS011;1952;50.872;6.692;2023-06-22T05:52:42;7.00;;;6.40;;
3873;SDS011;1952;50.872;6.692;2023-06-22T05:55:14;6.90;;;6.30;;
3873;SDS011;1952;50.872;6.692;2023-06-22T05:57:45;7.03;;;6.43;;
3873;SDS011;1952;50.872;6.692;2023-06-22T06:00:16;7.13;;;6.53;;
3873;SDS011;1952;50.872;6.692;2023-06-22T06:02:49;10.70;;;7.17;;
3873;SDS011;1952;50.872;6.692;2023-06-22T06:05:17;8.77;;;7.87;;
3873;SDS011;1952;50.872;6.692;2023-06-22T06:07:49;7.33;;;6.17;;
3873;SDS011;1952;50.872;6.692;2023-06-22T06:10:19;7.37;;;6.67;;
3873;SDS011;1952;50.872;6.692;2023-06-22T06:12:48;11.33;;;7.13;;
3873;SDS011;1952;50.872;6.692;2023-06-22T06:15:21;7.37;;;6.63;;
3873;SDS011;1952;50.872;6.692;2023-06-22T06:17:49;7.40;;;6.40;;
3873;SDS011;1952;50.872;6.692;2023-06-22T06:20:19;10.13;;;5.90;;
3873;SDS011;1952;50.872;6.692;2023-06-22T06:22:47;9.80;;;7.60;;
3873;SDS011;1952;50.872;6.692;2023-06-22T06:25:16;8.53;;;7.73;;
3873;SDS011;1952;50.872;6.692;2023-06-22T06:27:48;10.00;;;8.93;;
3873;SDS011;1952;50.872;6.692;2023-06-22T06:30:18;8.97;;;6.90;;
3873;SDS011;1952;50.872;6.692;2023-06-22T06:32:47;9.80;;;8.67;;
3873;SDS011;1952;50.872;6.692;2023-06-22T06:35:16;6.90;;;6.33;;
3873;SDS011;1952;50.872;6.692;2023-06-22T06:37:46;11.37;;;8.60;;
3873;SDS011;1952;50.872;6.692;2023-06-22T06:40:17;9.83;;;7.50;;
3873;SDS011;1952;50.872;6.692;2023-06-22T06:42:49;8.73;;;7.80;;
3873;SDS011;1952;50.872;6.692;2023-06-22T06:45:18;8.90;;;7.47;;
3873;SDS011;1952;50.872;6.692;2023-06-22T06:47:49;8.67;;;7.87;;
3873;SDS011;1952;50.872;6.692;2023-06-22T06:50:23;8.57;;;7.90;;
3873;SDS011;1952;50.872;6.692;2023-06-22T06:52:56;10.13;;;7.63;;
3873;SDS011;1952;50.872;6.692;2023-06-22T06:55:26;10.77;;;8.67;;
3873;SDS011;1952;50.872;6.692;2023-06-22T06:58:08;14.90;;;8.83;;
3873;SDS011;1952;50.872;6.692;2023-06-22T07:00:40;9.30;;;8.50;;
3873;SDS011;1952;50.872;6.692;2023-06-22T07:03:13;9.30;;;8.50;;
3873;SDS011;1952;50.872;6.692;2023-06-22T07:05:45;8.97;;;8.17;;
3873;SDS011;1952;50.872;6.692;2023-06-22T07:08:15;10.27;;;9.20;;
3873;SDS011;1952;50.872;6.692;2023-06-22T07:10:45;10.10;;;9.23;;
3873;SDS011;1952;50.872;6.692;2023-06-22T07:13:16;9.73;;;8.80;;
3873;SDS011;1952;50.872;6.692;2023-06-22T07:15:45;11.23;;;9.53;;
3873;SDS011;1952;50.872;6.692;2023-06-22T07:18:14;10.87;;;9.57;;
3873;SDS011;1952;50.872;6.692;2023-06-22T07:21:06;10.97;;;9.97;;
3873;SDS011;1952;50.872;6.692;2023-06-22T07:23:34;10.23;;;9.03;;
3873;SDS011;1952;50.872;6.692;2023-06-22T07:26:05;11.10;;;10.20;;
3873;SDS011;1952;50.872;6.692;2023-06-22T07:28:36;9.83;;;8.93;;
3873;SDS011;1952;50.872;6.692;2023-06-22T07:31:09;9.20;;;8.40;;
3873;SDS011;1952;50.872;6.692;2023-06-22T07:33:41;11.40;;;10.37;;
3873;SDS011;1952;50.872;6.692;2023-06-22T07:36:09;11.40;;;10.40;;
3873;SDS011;1952;50.872;6.692;2023-06-22T07:38:39;10.27;;;9.37;;
3873;SDS011;1952;50.872;6.692;2023-06-22T07:41:10;10.93;;;10.00;;
3873;SDS011;1952;50.872;6.692;2023-06-22T07:43:42;10.40;;;9.50;;
3873;SDS011;1952;50.872;6.692;2023-06-22T07:46:13;13.90;;;10.97;;
3873;SDS011;1952;50.872;6.692;2023-06-22T07:48:42;11.63;;;10.43;;
3873;SDS011;1952;50.872;6.692;2023-06-22T07:51:22;14.07;;;12.77;;
3873;SDS011;1952;50.872;6.692;2023-06-22T07:53:51;10.03;;;9.23;;
3873;SDS011;1952;50.872;6.692;2023-06-22T07:56:21;13.20;;;11.80;;
3873;SDS011;1952;50.872;6.692;2023-06-22T07:58:53;11.30;;;10.40;;
3873;SDS011;1952;50.872;6.692;2023-06-22T08:01:26;10.73;;;9.83;;
3873;SDS011;1952;50.872;6.692;2023-06-22T08:04:06;9.87;;;9.07;;
3873;SDS011;1952;50.872;6.692;2023-06-22T08:06:43;11.30;;;9.50;;
3873;SDS011;1952;50.872;6.692;2023-06-22T08:09:14;10.40;;;9.40;;
3873;SDS011;1952;50.872;6.692;2023-06-22T08:11:50;10.90;;;10.00;;
3873;SDS011;1952;50.872;6.692;2023-06-22T08:14:24;10.53;;;9.10;;
3873;SDS011;1952;50.872;6.692;2023-06-22T08:17:13;9.83;;;8.93;;
3873;SDS011;1952;50.872;6.692;2023-06-22T08:19:43;10.43;;;9.53;;
3873;SDS011;1952;50.872;6.692;2023-06-22T08:22:31;10.53;;;9.63;;
3873;SDS011;1952;50.872;6.692;2023-06-22T08:25:04;8.97;;;8.27;;
3873;SDS011;1952;50.872;6.692;2023-06-22T08:27:49;10.33;;;9.53;;
3873;SDS011;1952;50.872;6.692;2023-06-22T08:30:23;9.73;;;8.63;;
3873;SDS011;1952;50.872;6.692;2023-06-22T08:33:20;10.37;;;9.50;;
3873;SDS011;1952;50.872;6.692;2023-06-22T08:36:19;10.80;;;9.73;;
3873;SDS011;1952;50.872;6.692;2023-06-22T08:39:06;11.43;;;10.47;;
3873;SDS011;1952;50.872;6.692;2023-06-22T08:41:45;9.50;;;8.70;;
3873;SDS011;1952;50.872;6.692;2023-06-22T08:44:20;10.60;;;9.70;;
3873;SDS011;1952;50.872;6.692;2023-06-22T08:46:58;9.93;;;9.03;;
3873;SDS011;1952;50.872;6.692;2023-06-22T08:49:30;10.07;;;9.27;;
3873;SDS011;1952;50.872;6.692;2023-06-22T08:52:01;11.10;;;9.07;;
3873;SDS011;1952;50.872;6.692;2023-06-22T08:55:00;10.47;;;9.43;;
3873;SDS011;1952;50.872;6.692;2023-06-22T08:58:04;11.23;;;10.20;;
3873;SDS011;1952;50.872;6.692;2023-06-22T09:00:40;11.07;;;10.07;;
3873;SDS011;1952;50.872;6.692;2023-06-22T09:03:30;11.60;;;10.70;;
3873;SDS011;1952;50.872;6.692;2023-06-22T09:06:31;10.10;;;9.20;;
3873;SDS011;1952;50.872;6.692;2023-06-22T09:09:31;10.03;;;9.20;;
3873;SDS011;1952;50.872;6.692;2023-06-22T09:12:13;11.17;;;9.90;;
3873;SDS011;1952;50.872;6.692;2023-06-22T09:15:02;10.23;;;9.37;;
3873;SDS011;1952;50.872;6.692;2023-06-22T09:17:43;11.10;;;10.03;;
3873;SDS011;1952;50.872;6.692;2023-06-22T09:20:34;11.10;;;10.00;;
3873;SDS011;1952;50.872;6.692;2023-06-22T09:23:18;10.53;;;9.70;;
3873;SDS011;1952;50.872;6.692;2023-06-22T09:26:17;10.97;;;9.97;;
3873;SDS011;1952;50.872;6.692;2023-06-22T09:28:49;12.30;;;11.20;;
3873;SDS011;1952;50.872;6.692;2023-06-22T09:31:34;10.73;;;9.83;;
3873;SDS011;1952;50.872;6.692;2023-06-22T09:34:28;12.70;;;11.70;;
3873;SDS011;1952;50.872;6.692;2023-06-22T09:40:18;11.40;;;10.43;;
3873;SDS011;1952;50.872;6.692;2023-06-22T09:43:20;11.03;;;10.10;;
3873;SDS011;1952;50.872;6.692;2023-06-22T09:46:07;10.23;;;9.43;;
3873;SDS011;1952;50.872;6.692;2023-06-22T09:48:40;10.30;;;9.30;;
3873;SDS011;1952;50.872;6.692;2023-06-22T09:51:12;11.33;;;10.43;;
3873;SDS011;1952;50.872;6.692;2023-06-22T09:56:54;10.20;;;9.30;;
3873;SDS011;1952;50.872;6.692;2023-06-22T10:05:40;11.17;;;10.20;;
3873;SDS011;1952;50.872;6.692;2023-06-22T10:11:09;12.30;;;9.90;;
3873;SDS011;1952;50.872;6.692;2023-06-22T10:16:42;12.73;;;11.67;;
3873;SDS011;1952;50.872;6.692;2023-06-22T10:19:11;13.00;;;11.90;;
3873;SDS011;1952;50.872;6.692;2023-06-22T10:21:58;14.23;;;12.93;;
3873;SDS011;1952;50.872;6.692;2023-06-22T10:24:29;13.67;;;12.37;;
3873;SDS011;1952;50.872;6.692;2023-06-22T10:27:03;12.67;;;11.47;;
3873;SDS011;1952;50.872;6.692;2023-06-22T10:29:49;13.80;;;12.47;;
3873;SDS011;1952;50.872;6.692;2023-06-22T10:32:37;14.07;;;12.73;;
3873;SDS011;1952;50.872;6.692;2023-06-22T10:35:07;14.30;;;13.00;;
3873;SDS011;1952;50.872;6.692;2023-06-22T10:37:39;16.87;;;15.07;;
3873;SDS011;1952;50.872;6.692;2023-06-22T10:40:14;15.80;;;14.20;;
3873;SDS011;1952;50.872;6.692;2023-06-22T10:42:45;14.70;;;13.20;;
3873;SDS011;1952;50.872;6.692;2023-06-22T10:45:20;16.90;;;15.30;;
3873;SDS011;1952;50.872;6.692;2023-06-22T10:47:55;18.40;;;16.63;;
3873;SDS011;1952;50.872;6.692;2023-06-22T10:50:24;16.60;;;15.03;;
3873;SDS011;1952;50.872;6.692;2023-06-22T10:53:09;18.57;;;16.90;;
3873;SDS011;1952;50.872;6.692;2023-06-22T10:55:44;18.90;;;17.20;;
3873;SDS011;1952;50.872;6.692;2023-06-22T10:58:42;15.23;;;13.93;;
3873;SDS011;1952;50.872;6.692;2023-06-22T11:01:43;19.13;;;17.27;;
3873;SDS011;1952;50.872;6.692;2023-06-22T11:28:28;19.80;;;16.87;;
3873;SDS011;1952;50.872;6.692;2023-06-22T11:31:12;18.07;;;16.17;;
3873;SDS011;1952;50.872;6.692;2023-06-22T11:33:56;17.00;;;15.30;;
3873;SDS011;1952;50.872;6.692;2023-06-22T11:36:32;15.50;;;13.90;;
3873;SDS011;1952;50.872;6.692;2023-06-22T11:39:04;18.87;;;16.90;;
3873;SDS011;1952;50.872;6.692;2023-06-22T11:41:49;17.87;;;16.07;;
3873;SDS011;1952;50.872;6.692;2023-06-22T11:44:34;17.53;;;15.30;;
3873;SDS011;1952;50.872;6.692;2023-06-22T11:47:05;15.63;;;14.07;;
3873;SDS011;1952;50.872;6.692;2023-06-22T11:49:49;16.50;;;14.93;;
3873;SDS011;1952;50.872;6.692;2023-06-22T11:52:41;15.63;;;14.23;;
3873;SDS011;1952;50.872;6.692;2023-06-22T11:55:12;15.40;;;14.10;;
3873;SDS011;1952;50.872;6.692;2023-06-22T12:49:25;14.40;;;13.13;;
3873;SDS011;1952;50.872;6.692;2023-06-22T12:55:01;15.67;;;14.27;;
3873;SDS011;1952;50.872;6.692;2023-06-22T12:57:44;15.73;;;14.00;;
3873;SDS011;1952;50.872;6.692;2023-06-22T13:00:22;16.93;;;15.43;;
3873;SDS011;1952;50.872;6.692;2023-06-22T13:03:11;17.37;;;15.87;;
3873;SDS011;1952;50.872;6.692;2023-06-22T13:08:45;15.83;;;14.50;;
3873;SDS011;1952;50.872;6.692;2023-06-22T13:11:53;13.77;;;12.47;;
3873;SDS011;1952;50.872;6.692;2023-06-22T13:14:31;14.70;;;13.30;;
3873;SDS011;1952;50.872;6.692;2023-06-22T13:17:06;13.80;;;12.60;;
3873;SDS011;1952;50.872;6.692;2023-06-22T13:19:35;15.13;;;13.63;;
3873;SDS011;1952;50.872;6.692;2023-06-22T13:22:29;12.77;;;11.57;;
3873;SDS011;1952;50.872;6.692;2023-06-22T13:25:02;13.13;;;12.03;;
3873;SDS011;1952;50.872;6.692;2023-06-22T13:27:51;12.13;;;11.03;;
3873;SDS011;1952;50.872;6.692;2023-06-22T13:30:53;12.27;;;11.17;;
3873;SDS011;1952;50.872;6.692;2023-06-22T13:36:44;13.30;;;12.20;;
3873;SDS011;1952;50.872;6.692;2023-06-22T13:39:29;13.17;;;12.07;;
3873;SDS011;1952;50.872;6.692;2023-06-22T13:45:05;14.90;;;13.60;;
3873;SDS011;1952;50.872;6.692;2023-06-22T13:47:37;13.83;;;12.63;;
3873;SDS011;1952;50.872;6.692;2023-06-22T13:50:06;12.37;;;11.37;;
3873;SDS011;1952;50.872;6.692;2023-06-22T13:53:00;12.00;;;11.00;;
3873;SDS011;1952;50.872;6.692;2023-06-22T13:55:44;11.90;;;10.90;;
3873;SDS011;1952;50.872;6.692;2023-06-22T13:58:28;12.40;;;10.63;;
3873;SDS011;1952;50.872;6.692;2023-06-22T14:01:02;12.17;;;10.70;;
3873;SDS011;1952;50.872;6.692;2023-06-22T14:03:38;13.27;;;11.97;;
3873;SDS011;1952;50.872;6.692;2023-06-22T14:06:15;11.87;;;10.93;;
3873;SDS011;1952;50.872;6.692;2023-06-22T14:08:46;11.63;;;10.73;;
3873;SDS011;1952;50.872;6.692;2023-06-22T14:14:07;10.10;;;9.20;;
3873;SDS011;1952;50.872;6.692;2023-06-22T14:16:37;12.43;;;11.33;;
3873;SDS011;1952;50.872;6.692;2023-06-22T14:19:06;11.80;;;10.70;;
3873;SDS011;1952;50.872;6.692;2023-06-22T14:21:36;11.70;;;10.70;;
3873;SDS011;1952;50.872;6.692;2023-06-22T14:24:07;11.07;;;10.10;;
3873;SDS011;1952;50.872;6.692;2023-06-22T14:26:36;11.53;;;10.50;;
3873;SDS011;1952;50.872;6.692;2023-06-22T14:29:26;11.20;;;10.10;;
3873;SDS011;1952;50.872;6.692;2023-06-22T14:34:40;10.37;;;9.50;;
3873;SDS011;1952;50.872;6.692;2023-06-22T14:37:36;10.00;;;9.10;;
3873;SDS011;1952;50.872;6.692;2023-06-22T14:40:12;10.43;;;9.53;;
3873;SDS011;1952;50.872;6.692;2023-06-22T14:42:41;9.73;;;8.93;;
3873;SDS011;1952;50.872;6.692;2023-06-22T14:45:25;9.10;;;8.30;;
3873;SDS011;1952;50.872;6.692;2023-06-22T14:47:53;10.20;;;9.40;;
3873;SDS011;1952;50.872;6.692;2023-06-22T14:50:30;9.40;;;8.60;;
3873;SDS011;1952;50.872;6.692;2023-06-22T14:52:59;10.00;;;9.20;;
3873;SDS011;1952;50.872;6.692;2023-06-22T14:55:37;10.37;;;9.47;;
3873;SDS011;1952;50.872;6.692;2023-06-22T14:58:05;11.30;;;10.40;;
3873;SDS011;1952;50.872;6.692;2023-06-22T15:00:34;12.73;;;11.60;;
3873;SDS011;1952;50.872;6.692;2023-06-22T15:03:03;10.70;;;9.70;;
3873;SDS011;1952;50.872;6.692;2023-06-22T15:05:38;13.00;;;11.83;;
3873;SDS011;1952;50.872;6.692;2023-06-22T15:08:07;13.00;;;11.70;;
3873;SDS011;1952;50.872;6.692;2023-06-22T15:10:37;13.67;;;12.47;;
3873;SDS011;1952;50.872;6.692;2023-06-22T15:13:07;13.67;;;12.37;;
3873;SDS011;1952;50.872;6.692;2023-06-22T15:15:36;15.40;;;14.00;;
3873;SDS011;1952;50.872;6.692;2023-06-22T15:18:06;14.73;;;13.33;;
3873;SDS011;1952;50.872;6.692;2023-06-22T15:20:34;14.90;;;13.50;;
3873;SDS011;1952;50.872;6.692;2023-06-22T15:23:06;13.43;;;12.20;;
3873;SDS011;1952;50.872;6.692;2023-06-22T15:25:35;13.33;;;12.13;;
3873;SDS011;1952;50.872;6.692;2023-06-22T15:28:06;14.00;;;12.60;;
3873;SDS011;1952;50.872;6.692;2023-06-22T15:36:21;12.87;;;11.63;;
3873;SDS011;1952;50.872;6.692;2023-06-22T15:38:58;12.87;;;11.60;;
3873;SDS011;1952;50.872;6.692;2023-06-22T15:41:30;13.53;;;12.17;;
3873;SDS011;1952;50.872;6.692;2023-06-22T15:44:07;12.17;;;11.07;;
3873;SDS011;1952;50.872;6.692;2023-06-22T15:46:43;17.03;;;12.20;;
3873;SDS011;1952;50.872;6.692;2023-06-22T15:49:12;12.93;;;11.60;;
3873;SDS011;1952;50.872;6.692;2023-06-22T15:51:42;13.70;;;12.50;;
3873;SDS011;1952;50.872;6.692;2023-06-22T15:54:20;10.60;;;9.67;;
3873;SDS011;1952;50.872;6.692;2023-06-22T15:56:49;13.47;;;10.47;;
3873;SDS011;1952;50.872;6.692;2023-06-22T15:59:19;13.93;;;12.50;;
3873;SDS011;1952;50.872;6.692;2023-06-22T16:01:48;14.50;;;11.87;;
3873;SDS011;1952;50.872;6.692;2023-06-22T16:04:37;15.30;;;11.60;;
3873;SDS011;1952;50.872;6.692;2023-06-22T16:07:14;13.17;;;11.03;;
3873;SDS011;1952;50.872;6.692;2023-06-22T16:09:44;13.63;;;10.83;;
3873;SDS011;1952;50.872;6.692;2023-06-22T16:12:19;11.90;;;10.80;;
3873;SDS011;1952;50.872;6.692;2023-06-22T16:14:52;0.80;;;0.80;;
3873;SDS011;1952;50.872;6.692;2023-06-22T16:17:21;1.30;;;1.20;;
3873;SDS011;1952;50.872;6.692;2023-06-22T16:19:50;0.80;;;0.77;;
3873;SDS011;1952;50.872;6.692;2023-06-22T16:22:47;0.87;;;0.87;;
3873;SDS011;1952;50.872;6.692;2023-06-22T16:25:18;0.80;;;0.80;;
3873;SDS011;1952;50.872;6.692;2023-06-22T16:27:46;0.80;;;0.60;;
3873;SDS011;1952;50.872;6.692;2023-06-22T16:30:15;0.80;;;0.80;;
3873;SDS011;1952;50.872;6.692;2023-06-22T16:32:50;0.93;;;0.90;;
3873;SDS011;1952;50.872;6.692;2023-06-22T16:35:20;0.80;;;0.73;;
3873;SDS011;1952;50.872;6.692;2023-06-22T16:37:49;0.83;;;0.80;;
3873;SDS011;1952;50.872;6.692;2023-06-22T16:40:18;0.80;;;0.80;;
3873;SDS011;1952;50.872;6.692;2023-06-22T16:42:47;0.80;;;0.80;;
3873;SDS011;1952;50.872;6.692;2023-06-22T16:45:18;0.80;;;0.80;;
3873;SDS011;1952;50.872;6.692;2023-06-22T16:47:47;0.80;;;0.80;;
3873;SDS011;1952;50.872;6.692;2023-06-22T16:50:16;0.80;;;0.70;;
3873;SDS011;1952;50.872;6.692;2023-06-22T16:52:49;0.80;;;0.63;;
3873;SDS011;1952;50.872;6.692;2023-06-22T16:55:19;0.80;;;0.80;;
3873;SDS011;1952;50.872;6.692;2023-06-22T16:57:50;0.80;;;0.70;;
3873;SDS011;1952;50.872;6.692;2023-06-22T17:00:22;0.80;;;0.70;;
3873;SDS011;1952;50.872;6.692;2023-06-22T17:02:51;0.80;;;0.60;;
3873;SDS011;1952;50.872;6.692;2023-06-22T17:05:20;0.80;;;0.70;;
3873;SDS011;1952;50.872;6.692;2023-06-22T17:07:49;0.80;;;0.70;;
3873;SDS011;1952;50.872;6.692;2023-06-22T17:10:27;1.10;;;1.00;;
3873;SDS011;1952;50.872;6.692;2023-06-22T17:12:56;1.63;;;1.20;;
3873;SDS011;1952;50.872;6.692;2023-06-22T17:15:27;0.80;;;0.70;;
3873;SDS011;1952;50.872;6.692;2023-06-22T17:17:58;0.80;;;0.77;;
3873;SDS011;1952;50.872;6.692;2023-06-22T17:20:27;0.80;;;0.70;;
3873;SDS011;1952;50.872;6.692;2023-06-22T17:22:56;1.13;;;1.03;;
3873;SDS011;1952;50.872;6.692;2023-06-22T17:25:25;1.07;;;0.97;;
3873;SDS011;1952;50.872;6.692;2023-06-22T17:27:59;0.97;;;0.87;;
3873;SDS011;1952;50.872;6.692;2023-06-22T17:30:28;0.80;;;0.80;;
3873;SDS011;1952;50.872;6.692;2023-06-22T17:33:13;0.80;;;0.80;;
3873;SDS011;1952;50.872;6.692;2023-06-22T17:35:50;0.80;;;0.67;;
3873;SDS011;1952;50.872;6.692;2023-06-22T17:38:24;0.80;;;0.80;;
3873;SDS011;1952;50.872;6.692;2023-06-22T17:40:59;0.80;;;0.63;;
3873;SDS011;1952;50.872;6.692;2023-06-22T17:43:30;0.87;;;0.80;;
3873;SDS011;1952;50.872;6.692;2023-06-22T17:45:59;1.03;;;0.90;;
3873;SDS011;1952;50.872;6.692;2023-06-22T17:48:44;0.80;;;0.63;;
3873;SDS011;1952;50.872;6.692;2023-06-22T17:51:13;1.00;;;0.90;;
3873;SDS011;1952;50.872;6.692;2023-06-22T17:53:48;1.00;;;0.90;;
3873;SDS011;1952;50.872;6.692;2023-06-22T17:56:17;1.20;;;1.10;;
3873;SDS011;1952;50.872;6.692;2023-06-22T17:58:53;0.80;;;0.80;;
3873;SDS011;1952;50.872;6.692;2023-06-22T18:01:27;0.80;;;0.73;;
3873;SDS011;1952;50.872;6.692;2023-06-22T18:04:11;0.93;;;0.87;;
3873;SDS011;1952;50.872;6.692;2023-06-22T18:06:41;1.07;;;0.97;;
3873;SDS011;1952;50.872;6.692;2023-06-22T18:09:23;0.80;;;0.60;;
3873;SDS011;1952;50.872;6.692;2023-06-22T18:11:53;1.23;;;1.13;;
3873;SDS011;1952;50.872;6.692;2023-06-22T18:14:28;0.80;;;0.70;;